»·PEaware :: SWA1649 KLAS-KSNA

SWA1649 :: KLAS-KSNA

FLIGHT INFORMATION

Flight Status: Arrived
Operator:
Southwest Airlines
More flights by this operator :: More flights under this callsign
Pilot: Walter P. (10403)
Aircraft: BOEING 737-800
(B738)
More flights by this aircraft type
Origin: KLAS McCarran Intl
United States
Destination: KSNA John Wayne-Orange Co
United States
More flights between these airports :: More routes between these airports
Route: +BOACH8 WHIGG FEYLA DSNEE4
File this flight plan on PilotEdge
Remarks:
Altitude:
(Current/Filed)
28,000ft
Speed:
(Current/Filed)
450kts
Departed: 28-Jul-18 02:26 PM
Arrived: 28-Jul-18 03:32 PM
Distance/Time
Traveled:
197nm/1:06
Distance/Time
To Go:
Arrived

Flight Plot

Page will automatically refresh every two minutes.

Flight plan parsing failed; only flown route is shown


Map Options




Map Legend


Flown Route
Filed Route
Departure Airport
Arrival Airport
Navaid (VOR, NDB)
Fix

Horizontal Profiles

Position Reports

Time Latitude Longitude Heading Altitude Ground
Speed
28-Jul-18 14:01 36.081267 -115.146099 270 2118ft 0kts
28-Jul-18 14:02 36.081267 -115.146099 270 2118ft 0kts
28-Jul-18 14:03 36.081267 -115.146099 270 2118ft 0kts
28-Jul-18 14:04 36.081267 -115.146099 270 2118ft 0kts
28-Jul-18 14:05 36.081267 -115.146099 270 2118ft 0kts
28-Jul-18 14:06 36.081267 -115.146099 270 2118ft 0kts
28-Jul-18 14:07 36.081267 -115.146099 270 2118ft 0kts
28-Jul-18 14:08 36.081267 -115.146099 270 2118ft 0kts
28-Jul-18 14:09 36.081267 -115.146099 270 2118ft 0kts
28-Jul-18 14:10 36.081267 -115.146099 270 2118ft 0kts
28-Jul-18 14:11 36.081267 -115.146099 270 2118ft 0kts
28-Jul-18 14:12 36.081267 -115.146099 270 2118ft 0kts
28-Jul-18 14:13 36.081267 -115.146099 270 2118ft 0kts
28-Jul-18 14:14 36.081267 -115.146099 270 2118ft 0kts
28-Jul-18 14:15 36.081267 -115.146099 270 2118ft 0kts
28-Jul-18 14:16 36.081266 -115.145827 270 2118ft 2kts
28-Jul-18 14:17 36.081302 -115.145287 246 2118ft 2kts
28-Jul-18 14:18 36.081418 -115.145067 229 2118ft 0kts
28-Jul-18 14:19 36.081418 -115.145067 229 2118ft 0kts
28-Jul-18 14:20 36.081418 -115.145067 229 2118ft 0kts
28-Jul-18 14:21 36.081400 -115.145090 223 2118ft 1kts
28-Jul-18 14:22 36.078727 -115.144842 183 2118ft 9kts
28-Jul-18 14:23 36.077821 -115.148001 274 2118ft 12kts
28-Jul-18 14:24 36.078001 -115.153894 268 2118ft 20kts
28-Jul-18 14:25 36.078007 -115.160686 268 2118ft 12kts
28-Jul-18 14:26 36.077334 -115.161275 180 2118ft 0kts
28-Jul-18 14:27 36.076410 -115.154397 93 2118ft 96kts
28-Jul-18 14:28 36.076539 -115.092826 92 3338ft 222kts
28-Jul-18 14:29 36.077389 -115.013550 93 6389ft 240kts
28-Jul-18 14:30 36.050428 -114.940627 154 6959ft 247kts
28-Jul-18 14:31 35.983112 -114.910651 177 7863ft 274kts
28-Jul-18 14:32 35.917091 -114.953548 224 10474ft 302kts
28-Jul-18 14:33 35.856425 -115.029390 224 13147ft 324kts
28-Jul-18 14:34 35.795290 -115.111281 230 15137ft 335kts
28-Jul-18 14:35 35.736684 -115.202890 231 16996ft 348kts
28-Jul-18 14:36 35.675123 -115.297896 229 19012ft 363kts
28-Jul-18 14:37 35.608044 -115.388926 227 19009ft 360kts
28-Jul-18 14:38 35.540605 -115.479545 227 19009ft 360kts
28-Jul-18 14:39 35.471978 -115.571811 228 21328ft 372kts
28-Jul-18 14:40 35.401695 -115.666641 228 23552ft 385kts
28-Jul-18 14:41 35.329850 -115.763418 228 25748ft 393kts
28-Jul-18 14:42 35.256566 -115.862016 228 27783ft 398kts
28-Jul-18 14:43 35.179195 -115.962713 226 28042ft 421kts
28-Jul-18 14:44 35.095402 -116.068047 226 28039ft 444kts
28-Jul-18 14:45 35.009610 -116.175655 226 28035ft 445kts
28-Jul-18 14:46 34.925004 -116.281490 226 27978ft 416kts
28-Jul-18 14:47 34.845908 -116.381034 226 27151ft 409kts
28-Jul-18 14:48 34.768138 -116.480028 226 26152ft 406kts
28-Jul-18 14:49 34.691192 -116.577544 224 24979ft 406kts
28-Jul-18 14:50 34.604765 -116.662918 218 23478ft 413kts
28-Jul-18 14:51 34.518212 -116.746996 218 20911ft 397kts
28-Jul-18 14:52 34.444367 -116.829090 222 19091ft 368kts
28-Jul-18 14:53 34.374199 -116.910471 222 16876ft 354kts
28-Jul-18 14:54 34.306434 -116.988749 223 14741ft 343kts
28-Jul-18 14:55 34.236020 -117.057761 210 14261ft 333kts
28-Jul-18 14:56 34.156896 -117.112807 203 12115ft 328kts
28-Jul-18 14:57 34.076364 -117.154922 203 12006ft 299kts
28-Jul-18 14:58 34.001410 -117.195351 211 12039ft 297kts
28-Jul-18 14:59 33.946847 -117.263888 228 10938ft 287kts
28-Jul-18 15:00 33.896507 -117.335295 229 9638ft 281kts
28-Jul-18 15:01 33.849863 -117.401501 229 9137ft 251kts
28-Jul-18 15:02 33.809871 -117.466792 248 8272ft 241kts
28-Jul-18 15:03 33.794745 -117.543262 270 7584ft 236kts
28-Jul-18 15:04 33.809053 -117.614991 300 7305ft 223kts
28-Jul-18 15:05 33.840631 -117.673186 300 6081ft 213kts
28-Jul-18 15:06 33.891108 -117.698619 351 4688ft 218kts
28-Jul-18 15:07 33.947777 -117.704785 351 3959ft 208kts
28-Jul-18 15:08 33.968467 -117.746669 225 3995ft 192kts
28-Jul-18 15:09 33.914771 -117.746334 173 3960ft 205kts
28-Jul-18 15:10 33.862040 -117.751669 208 3861ft 196kts
28-Jul-18 15:11 33.818112 -117.778449 209 3364ft 193kts
28-Jul-18 15:12 33.771612 -117.807948 209 2986ft 179kts
28-Jul-18 15:13 33.724519 -117.837739 207 1064ft 201kts
28-Jul-18 15:14 33.684185 -117.863413 209 213ft 134kts
28-Jul-18 15:15 33.640352 -117.891228 208 1212ft 229kts
28-Jul-18 15:16 33.581019 -117.926914 191 2987ft 249kts
28-Jul-18 15:17 33.512945 -117.935385 186 4977ft 241kts
28-Jul-18 15:18 33.446463 -117.938771 165 5002ft 243kts
28-Jul-18 15:19 33.431621 -117.871090 48 5015ft 263kts
28-Jul-18 15:20 33.496381 -117.833420 21 5000ft 263kts
28-Jul-18 15:21 33.563423 -117.801045 21 5000ft 263kts
28-Jul-18 15:22 33.630618 -117.768566 21 4992ft 257kts
28-Jul-18 15:23 33.691024 -117.739240 21 4988ft 217kts
28-Jul-18 15:24 33.740995 -117.714623 21 5003ft 208kts
28-Jul-18 15:25 33.793524 -117.689297 16 4712ft 205kts
28-Jul-18 15:26 33.846006 -117.672200 339 4006ft 195kts
28-Jul-18 15:27 33.856408 -117.723959 238 4006ft 181kts
28-Jul-18 15:28 33.825196 -117.770515 229 3338ft 181kts
28-Jul-18 15:29 33.780862 -117.802029 209 2276ft 185kts
28-Jul-18 15:30 33.739087 -117.828598 208 1335ft 154kts
28-Jul-18 15:31 33.706325 -117.849312 208 610ft 118kts
28-Jul-18 15:32 33.677284 -117.867809 208 64ft 108kts
28-Jul-18 15:33 33.669247 -117.870798 47 64ft 9kts
28-Jul-18 15:34 33.673274 -117.867071 47 64ft 10kts
28-Jul-18 15:35 33.675806 -117.865386 29 64ft 13kts
28-Jul-18 15:36 33.676052 -117.864447 117 64ft 0kts
28-Jul-18 15:37 33.676052 -117.864447 117 64ft 0kts

Navigation Log

Ident Type
Flight plan parsing failed, navigation log unavailable